Falfurrias, TX

5:25 AM CST on November 21, 2019 (GMT -0600)
Falfurrias

Weather History for KBKS - August, 2019

Change the Weather History Date:

Sunday, August 25, 2019

  Actual Average (KNQI) Record (KNQI)
Temperature  
Mean Temperature 90 °F -  
Max Temperature 102 °F 92 °F 105 °F (2010)
Min Temperature 78 °F 72 °F 71 °F (2015)
Cooling Degree Days 24    
Growing Degree Days 40 (Base 50)    
Moisture  
Dew Point 75 °F    
Average Humidity 72    
Maximum Humidity 89    
Minimum Humidity 35    
Precipitation  
Precipitation 0.00 in - - ()
Sea Level Pressure  
Sea Level Pressure 29.81 in    
Wind  
Wind Speed 4 mph ()    
Max Wind Speed 23 mph    
Max Gust Speed 28 mph    
Visibility 9.2 miles    
Events      
Averages and records for this station are not official NWS values.
T = Trace of Precipitation, MM = Missing Value Source: Averaged Metar Reports

Daily Weather History Graph

Daily Weather History Graph

Search for Another Location

Airport or City:

Astronomy

Aug. 25, 2019 Rise Set
Actual Time 7:08 AM CDT 8:00 PM CDT
Civil Twilight 6:44 AM CDT 8:24 PM CDT
Nautical Twilight 6:16 AM CDT 8:52 PM CDT
Astronomical Twilight 5:47 AM CDT 9:21 PM CDT
Moon 2:00 AM CDT (8/25) 4:04 PM CDT (8/25)
Length of Visible Light 13h 39m
Length of Day
12h 51m
Waning Crescent, 29% of the Moon is Illuminated
Aug 25
Waning Crescent
Aug 30
New
Sep 5
First Quarter
Sep 13
Full
Sep 21
Last Quarter

Hourly Weather History & Observations

Time (CDT) Temp. Heat Index Dew Point Humidity Pressure Visibility Wind Dir Wind Speed Gust Speed Precip Events Conditions
12:15 AM 84.4 °F 98.0 °F 80.1 °F 87% 29.88 in 7.0 mi Calm Calm - N/A   Clear
12:35 AM 84.0 °F 97.3 °F 80.2 °F 88% 29.87 in 5.0 mi Calm Calm - N/A   Scattered Clouds
12:55 AM 83.7 °F 96.5 °F 80.1 °F 89% 29.86 in 5.0 mi Calm Calm - N/A   Clear
1:15 AM 83.5 °F 95.9 °F 80.1 °F 89% 29.86 in 5.0 mi Calm Calm - N/A   Clear
1:35 AM 83.3 °F 95.3 °F 79.9 °F 89% 29.86 in 7.0 mi SE 3.5 mph - N/A   Clear
1:55 AM 83.3 °F 94.5 °F 79.2 °F 87% 29.86 in 7.0 mi South 3.5 mph - N/A   Clear
2:15 AM 82.4 °F 92.1 °F 78.6 °F 88% 29.85 in 5.0 mi SSW 3.5 mph - N/A   Scattered Clouds
2:35 AM 81.1 °F 88.4 °F 77.2 °F 88% 29.85 in 7.0 mi SSW 3.5 mph - N/A   Scattered Clouds
2:55 AM 80.6 °F 87.1 °F 77.0 °F 89% 29.84 in 10.0 mi South 3.5 mph - N/A   Clear
3:15 AM 80.2 °F 86.0 °F 76.5 °F 88% 29.83 in 10.0 mi SSW 4.6 mph - N/A   Clear
3:35 AM 80.1 °F 85.4 °F 75.7 °F 87% 29.83 in 10.0 mi Calm Calm - N/A   Clear
3:55 AM 80.1 °F 85.4 °F 75.9 °F 87% 29.83 in 10.0 mi Calm Calm - N/A   Clear
4:15 AM 79.9 °F - 75.2 °F 86% 29.83 in 10.0 mi Calm Calm - N/A   Clear
4:35 AM 79.7 °F - 75.4 °F 87% 29.82 in 10.0 mi Calm Calm - N/A   Clear
4:55 AM 79.5 °F - 75.0 °F 86% 29.83 in 7.0 mi Calm Calm - N/A   Clear
5:15 AM 79.0 °F - 75.2 °F 88% 29.83 in 10.0 mi Calm Calm - N/A   Clear
5:35 AM 78.3 °F - 74.7 °F 89% 29.83 in 10.0 mi Calm Calm - N/A   Clear
5:55 AM 78.3 °F - 74.7 °F 89% 29.84 in 5.0 mi ENE 3.5 mph - N/A   Scattered Clouds
6:15 AM 78.1 °F - 74.7 °F 89% 29.84 in 7.0 mi Calm Calm - N/A   Mostly Cloudy
6:35 AM 78.4 °F - 74.8 °F 89% 29.85 in 10.0 mi Calm Calm - N/A   Overcast
6:55 AM 78.8 °F - 75.2 °F 89% 29.86 in 7.0 mi Calm Calm - N/A   Overcast
7:15 AM 79.0 °F - 75.4 °F 89% 29.86 in 7.0 mi Calm Calm - N/A   Overcast
7:35 AM 79.2 °F - 75.6 °F 89% 29.86 in 10.0 mi Calm Calm - N/A   Mostly Cloudy
7:55 AM 79.7 °F - 76.1 °F 89% 29.86 in 10.0 mi Calm Calm - N/A   Scattered Clouds
8:15 AM 80.6 °F 86.4 °F 75.6 °F 85% 29.87 in 10.0 mi East 3.5 mph - N/A   Clear
8:35 AM 82.2 °F 89.1 °F 75.2 °F 79% 29.88 in 10.0 mi East 3.5 mph - N/A   Clear
8:55 AM 83.5 °F 90.9 °F 74.8 °F 75% 29.87 in 10.0 mi ESE 5.8 mph - N/A   Clear
9:15 AM 85.5 °F 96.3 °F 77.2 °F 76% 29.87 in 10.0 mi SSE 4.6 mph - N/A   Clear
9:35 AM 87.1 °F 101.5 °F 79.0 °F 77% 29.87 in 7.0 mi SSE 8.1 mph - N/A   Clear
9:55 AM 88.2 °F 103.6 °F 79.2 °F 75% 29.87 in 7.0 mi SSE 11.5 mph - N/A   Scattered Clouds
10:15 AM 89.6 °F 104.7 °F 78.4 °F 70% 29.87 in 7.0 mi South 10.4 mph - N/A   Scattered Clouds
10:35 AM 91.2 °F 104.6 °F 77.2 °F 63% 29.87 in 10.0 mi South 12.7 mph - N/A   Scattered Clouds
10:55 AM 92.3 °F 106.2 °F 77.0 °F 61% 29.86 in 10.0 mi South 9.2 mph - N/A   Scattered Clouds
11:15 AM 92.7 °F 105.0 °F 75.7 °F 58% 29.86 in 10.0 mi SSW 12.7 mph - N/A   Scattered Clouds
11:35 AM 94.8 °F 107.7 °F 75.7 °F 54% 29.86 in 10.0 mi South 6.9 mph - N/A   Clear
11:55 AM 95.4 °F 106.1 °F 74.3 °F 50% 29.85 in 10.0 mi South 8.1 mph - N/A   Clear
12:15 PM 97.0 °F 107.7 °F 73.6 °F 47% 29.84 in 10.0 mi South 8.1 mph - N/A   Scattered Clouds
12:35 PM 99.1 °F 109.7 °F 72.9 °F 43% 29.83 in 10.0 mi SSE 6.9 mph - N/A   Scattered Clouds
12:55 PM 98.1 °F 108.0 °F 72.5 °F 44% 29.82 in 10.0 mi South 5.8 mph - N/A   Scattered Clouds
1:15 PM 99.7 °F 108.5 °F 71.1 °F 40% 29.81 in 10.0 mi SSE 10.4 mph - N/A   Scattered Clouds
1:35 PM 99.9 °F 108.2 °F 71.1 °F 39% 29.80 in 10.0 mi SSW 5.8 mph - N/A   Mostly Cloudy
1:55 PM 100.8 °F 108.6 °F 70.3 °F 37% 29.79 in 10.0 mi SSE 8.1 mph - N/A   Scattered Clouds
2:15 PM 100.4 °F 107.8 °F 69.4 °F 37% 29.78 in 10.0 mi SSE 5.8 mph - N/A   Scattered Clouds
2:35 PM 101.3 °F 108.1 °F 69.1 °F 35% 29.77 in 10.0 mi ESE 8.1 mph - N/A   Scattered Clouds
2:55 PM 100.9 °F 107.4 °F 68.5 °F 35% 29.76 in 10.0 mi ESE 4.6 mph - N/A   Scattered Clouds
3:15 PM 99.1 °F 105.2 °F 68.9 °F 37% 29.75 in 10.0 mi East 10.4 mph - N/A   Clear
3:35 PM 100.6 °F 108.2 °F 69.6 °F 37% 29.74 in 10.0 mi SE 6.9 mph - N/A   Clear
3:55 PM 100.6 °F 108.9 °F 70.9 °F 38% 29.72 in 10.0 mi SE 13.8 mph - N/A   Clear
4:10 PM 100.8 °F 109.3 °F 70.5 °F 38% 29.72 in 10.0 mi East 11.5 mph - N/A   Clear
4:35 PM 95.2 °F 110.2 °F 77.0 °F 56% 29.72 in 10.0 mi ESE 23.0 mph 27.6 mph N/A   Scattered Clouds
4:55 PM 90.9 °F 100.6 °F 74.1 °F 58% 29.74 in 10.0 mi East 17.3 mph 26.5 mph N/A   Scattered Clouds
5:15 PM 88.5 °F 96.8 °F 73.4 °F 61% 29.72 in 10.0 mi ESE 19.6 mph 24.2 mph N/A   Clear
5:35 PM 86.9 °F 92.5 °F 71.2 °F 59% 29.72 in 10.0 mi ESE 13.8 mph 21.9 mph N/A   Clear
5:55 PM 86.2 °F 92.2 °F 71.6 °F 62% 29.74 in 10.0 mi SSE 9.2 mph - N/A   Clear
6:15 PM 84.4 °F 89.4 °F 70.9 °F 64% 29.73 in 10.0 mi SE 9.2 mph - N/A   Clear
6:35 PM 84.2 °F 89.6 °F 71.8 °F 66% 29.74 in 10.0 mi ESE 8.1 mph - N/A   Clear
6:55 PM 84.6 °F 92.4 °F 74.5 °F 72% 29.76 in 10.0 mi SE 10.4 mph - N/A   Clear
7:35 PM 86.0 °F 98.3 °F 77.9 °F 77% 29.76 in 10.0 mi SE 15.0 mph - N/A   Clear
7:55 PM 85.6 °F 97.7 °F 78.3 °F 78% 29.77 in 10.0 mi SSE 13.8 mph 21.9 mph N/A   Clear
8:15 PM 85.3 °F 97.2 °F 78.1 °F 79% 29.77 in 10.0 mi SE 11.5 mph - N/A   Clear
8:35 PM 84.7 °F 96.1 °F 77.9 °F 80% 29.78 in 10.0 mi SE 5.8 mph - N/A   Clear
8:55 PM 84.2 °F 94.9 °F 77.7 °F 81% 29.78 in 10.0 mi SE 8.1 mph - N/A   Clear
9:15 PM 83.3 °F 93.1 °F 77.5 °F 83% 29.78 in 10.0 mi SSE 4.6 mph - N/A   Clear
9:35 PM 83.3 °F 93.1 °F 77.7 °F 83% 29.78 in 10.0 mi SSE 5.8 mph - N/A   Clear
9:55 PM 82.9 °F 92.1 °F 77.2 °F 83% 29.79 in 10.0 mi South 6.9 mph - N/A   Clear
10:15 PM 82.6 °F 91.1 °F 77.0 °F 83% 29.80 in 10.0 mi SSE 6.9 mph - N/A   Clear
10:35 PM 82.6 °F 91.1 °F 77.0 °F 83% 29.80 in 10.0 mi Calm Calm - N/A   Clear
10:55 PM 82.4 °F 90.9 °F 77.2 °F 84% 29.81 in 10.0 mi Calm Calm - N/A   Clear
11:15 PM 82.4 °F 90.9 °F 77.0 °F 84% 29.80 in 10.0 mi Calm Calm - N/A   Clear
11:35 PM 82.4 °F 90.3 °F 76.5 °F 82% 29.80 in 10.0 mi Calm Calm - N/A   Clear
11:55 PM 82.0 °F 89.7 °F 76.3 °F 83% 29.81 in 10.0 mi SSE 5.8 mph - N/A   Clear